sensor_id;sensor_type;location;lat;lon;timestamp;P1;durP1;ratioP1;P2;durP2;ratioP2
23768;SDS011;12064;50.890;5.424;2023-04-03T00:08:29;3.20;;;2.35;;
23768;SDS011;12064;50.890;5.424;2023-04-03T00:17:20;2.40;;;2.20;;
23768;SDS011;12064;50.890;5.424;2023-04-03T00:26:11;2.50;;;2.10;;
23768;SDS011;12064;50.890;5.424;2023-04-03T00:35:02;2.30;;;2.10;;
23768;SDS011;12064;50.890;5.424;2023-04-03T00:43:53;2.67;;;2.10;;
23768;SDS011;12064;50.890;5.424;2023-04-03T00:52:44;2.35;;;2.15;;
23768;SDS011;12064;50.890;5.424;2023-04-03T01:01:36;1.90;;;1.80;;
23768;SDS011;12064;50.890;5.424;2023-04-03T01:10:27;2.53;;;2.17;;
23768;SDS011;12064;50.890;5.424;2023-04-03T01:19:18;2.07;;;1.87;;
23768;SDS011;12064;50.890;5.424;2023-04-03T01:28:16;3.78;;;2.20;;
23768;SDS011;12064;50.890;5.424;2023-04-03T01:37:18;3.78;;;2.20;;
23768;SDS011;12064;50.890;5.424;2023-04-03T01:46:08;2.53;;;2.10;;
23768;SDS011;12064;50.890;5.424;2023-04-03T01:54:59;2.55;;;2.13;;
23768;SDS011;12064;50.890;5.424;2023-04-03T02:03:51;2.60;;;2.00;;
23768;SDS011;12064;50.890;5.424;2023-04-03T02:12:42;2.35;;;2.10;;
23768;SDS011;12064;50.890;5.424;2023-04-03T02:21:32;2.17;;;1.80;;
23768;SDS011;12064;50.890;5.424;2023-04-03T02:30:23;3.33;;;2.20;;
23768;SDS011;12064;50.890;5.424;2023-04-03T02:39:14;2.10;;;1.90;;
23768;SDS011;12064;50.890;5.424;2023-04-03T02:48:04;1.90;;;1.80;;
23768;SDS011;12064;50.890;5.424;2023-04-03T02:56:55;2.15;;;2.00;;
23768;SDS011;12064;50.890;5.424;2023-04-03T03:05:47;2.63;;;2.42;;
23768;SDS011;12064;50.890;5.424;2023-04-03T03:14:38;2.08;;;1.90;;
23768;SDS011;12064;50.890;5.424;2023-04-03T03:23:29;2.65;;;2.17;;
23768;SDS011;12064;50.890;5.424;2023-04-03T03:32:22;2.33;;;2.10;;
23768;SDS011;12064;50.890;5.424;2023-04-03T03:41:12;1.80;;;1.70;;
23768;SDS011;12064;50.890;5.424;2023-04-03T03:50:03;2.00;;;1.90;;
23768;SDS011;12064;50.890;5.424;2023-04-03T03:58:54;1.90;;;1.70;;
23768;SDS011;12064;50.890;5.424;2023-04-03T04:07:46;3.78;;;1.90;;
23768;SDS011;12064;50.890;5.424;2023-04-03T04:16:36;2.43;;;1.77;;
23768;SDS011;12064;50.890;5.424;2023-04-03T04:25:27;2.00;;;1.83;;
23768;SDS011;12064;50.890;5.424;2023-04-03T04:34:18;2.65;;;2.20;;
23768;SDS011;12064;50.890;5.424;2023-04-03T04:43:08;4.00;;;2.20;;
23768;SDS011;12064;50.890;5.424;2023-04-03T04:52:00;2.38;;;1.98;;
23768;SDS011;12064;50.890;5.424;2023-04-03T05:01:04;2.80;;;1.92;;
23768;SDS011;12064;50.890;5.424;2023-04-03T05:09:56;2.40;;;1.92;;
23768;SDS011;12064;50.890;5.424;2023-04-03T05:18:47;2.87;;;2.10;;
23768;SDS011;12064;50.890;5.424;2023-04-03T05:27:37;2.95;;;2.05;;
23768;SDS011;12064;50.890;5.424;2023-04-03T05:36:28;3.83;;;2.23;;
23768;SDS011;12064;50.890;5.424;2023-04-03T05:45:19;2.50;;;1.98;;
23768;SDS011;12064;50.890;5.424;2023-04-03T05:54:17;2.78;;;2.10;;
23768;SDS011;12064;50.890;5.424;2023-04-03T06:03:11;2.30;;;2.00;;
23768;SDS011;12064;50.890;5.424;2023-04-03T06:12:01;2.20;;;2.00;;
23768;SDS011;12064;50.890;5.424;2023-04-03T06:20:52;2.40;;;1.98;;
23768;SDS011;12064;50.890;5.424;2023-04-03T06:29:43;2.33;;;1.87;;
23768;SDS011;12064;50.890;5.424;2023-04-03T06:38:35;2.08;;;1.80;;
23768;SDS011;12064;50.890;5.424;2023-04-03T06:47:25;3.30;;;2.22;;
23768;SDS011;12064;50.890;5.424;2023-04-03T06:56:16;2.40;;;2.00;;
23768;SDS011;12064;50.890;5.424;2023-04-03T07:05:08;2.53;;;1.88;;
23768;SDS011;12064;50.890;5.424;2023-04-03T07:13:59;2.60;;;1.90;;
23768;SDS011;12064;50.890;5.424;2023-04-03T07:22:49;2.50;;;2.08;;
23768;SDS011;12064;50.890;5.424;2023-04-03T07:31:40;2.47;;;1.90;;
23768;SDS011;12064;50.890;5.424;2023-04-03T07:40:31;2.42;;;1.75;;
23768;SDS011;12064;50.890;5.424;2023-04-03T07:49:22;1.92;;;1.70;;
23768;SDS011;12064;50.890;5.424;2023-04-03T07:58:16;2.13;;;1.90;;
23768;SDS011;12064;50.890;5.424;2023-04-03T08:07:07;2.63;;;1.90;;
23768;SDS011;12064;50.890;5.424;2023-04-03T08:16:06;2.70;;;1.80;;
23768;SDS011;12064;50.890;5.424;2023-04-03T08:25:06;1.80;;;1.70;;
23768;SDS011;12064;50.890;5.424;2023-04-03T08:33:57;2.10;;;1.90;;
23768;SDS011;12064;50.890;5.424;2023-04-03T08:42:53;1.70;;;1.57;;
23768;SDS011;12064;50.890;5.424;2023-04-03T08:51:54;2.10;;;1.90;;
23768;SDS011;12064;50.890;5.424;2023-04-03T09:09:54;1.60;;;1.50;;
23768;SDS011;12064;50.890;5.424;2023-04-03T09:18:52;1.60;;;1.50;;
23768;SDS011;12064;50.890;5.424;2023-04-03T09:27:48;1.73;;;1.30;;
23768;SDS011;12064;50.890;5.424;2023-04-03T09:45:35;2.22;;;1.80;;
23768;SDS011;12064;50.890;5.424;2023-04-03T09:54:36;1.50;;;1.40;;
23768;SDS011;12064;50.890;5.424;2023-04-03T10:12:22;1.70;;;1.50;;
23768;SDS011;12064;50.890;5.424;2023-04-03T10:21:15;1.42;;;1.33;;
23768;SDS011;12064;50.890;5.424;2023-04-03T10:49:04;1.30;;;1.20;;
23768;SDS011;12064;50.890;5.424;2023-04-03T10:58:36;1.92;;;1.20;;
23768;SDS011;12064;50.890;5.424;2023-04-03T11:07:38;1.60;;;1.40;;
23768;SDS011;12064;50.890;5.424;2023-04-03T11:16:33;1.70;;;1.30;;
23768;SDS011;12064;50.890;5.424;2023-04-03T11:25:34;1.27;;;1.17;;
23768;SDS011;12064;50.890;5.424;2023-04-03T11:34:34;1.55;;;1.20;;
23768;SDS011;12064;50.890;5.424;2023-04-03T11:43:30;1.30;;;1.20;;
23768;SDS011;12064;50.890;5.424;2023-04-03T12:10:59;1.17;;;1.10;;
23768;SDS011;12064;50.890;5.424;2023-04-03T12:20:24;1.58;;;1.27;;
23768;SDS011;12064;50.890;5.424;2023-04-03T12:47:43;1.53;;;1.13;;
23768;SDS011;12064;50.890;5.424;2023-04-03T12:56:35;1.65;;;1.17;;
23768;SDS011;12064;50.890;5.424;2023-04-03T13:05:26;1.55;;;1.30;;
23768;SDS011;12064;50.890;5.424;2023-04-03T13:14:22;1.48;;;1.17;;
23768;SDS011;12064;50.890;5.424;2023-04-03T13:23:15;1.35;;;1.20;;
23768;SDS011;12064;50.890;5.424;2023-04-03T13:32:16;1.30;;;1.20;;
23768;SDS011;12064;50.890;5.424;2023-04-03T13:41:26;1.75;;;1.20;;
23768;SDS011;12064;50.890;5.424;2023-04-03T13:50:22;2.30;;;1.30;;
23768;SDS011;12064;50.890;5.424;2023-04-03T14:08:06;2.40;;;1.20;;
23768;SDS011;12064;50.890;5.424;2023-04-03T14:16:58;1.60;;;1.17;;
23768;SDS011;12064;50.890;5.424;2023-04-03T14:34:51;1.67;;;1.35;;
23768;SDS011;12064;50.890;5.424;2023-04-03T14:43:43;1.95;;;1.40;;
23768;SDS011;12064;50.890;5.424;2023-04-03T14:52:35;3.00;;;1.52;;
23768;SDS011;12064;50.890;5.424;2023-04-03T15:01:26;1.42;;;1.33;;
23768;SDS011;12064;50.890;5.424;2023-04-03T15:10:22;5.13;;;1.58;;
23768;SDS011;12064;50.890;5.424;2023-04-03T15:19:17;2.28;;;1.40;;
23768;SDS011;12064;50.890;5.424;2023-04-03T15:28:09;3.53;;;1.30;;
23768;SDS011;12064;50.890;5.424;2023-04-03T15:37:21;2.75;;;1.33;;
23768;SDS011;12064;50.890;5.424;2023-04-03T15:46:12;1.25;;;1.10;;
23768;SDS011;12064;50.890;5.424;2023-04-03T15:55:04;1.58;;;1.08;;
23768;SDS011;12064;50.890;5.424;2023-04-03T16:03:56;1.55;;;1.30;;
23768;SDS011;12064;50.890;5.424;2023-04-03T16:12:46;1.42;;;1.20;;
23768;SDS011;12064;50.890;5.424;2023-04-03T16:21:37;3.40;;;1.10;;
23768;SDS011;12064;50.890;5.424;2023-04-03T16:30:28;1.40;;;1.30;;
23768;SDS011;12064;50.890;5.424;2023-04-03T16:39:19;1.77;;;1.20;;
23768;SDS011;12064;50.890;5.424;2023-04-03T16:48:10;2.60;;;1.30;;
23768;SDS011;12064;50.890;5.424;2023-04-03T16:57:01;2.05;;;1.10;;
23768;SDS011;12064;50.890;5.424;2023-04-03T17:05:51;1.87;;;1.17;;
23768;SDS011;12064;50.890;5.424;2023-04-03T17:14:42;1.83;;;1.10;;
23768;SDS011;12064;50.890;5.424;2023-04-03T17:23:33;2.42;;;1.40;;
23768;SDS011;12064;50.890;5.424;2023-04-03T17:32:25;1.30;;;1.20;;
23768;SDS011;12064;50.890;5.424;2023-04-03T17:41:16;3.03;;;1.20;;
23768;SDS011;12064;50.890;5.424;2023-04-03T17:50:07;1.52;;;1.23;;
23768;SDS011;12064;50.890;5.424;2023-04-03T17:58:57;1.25;;;1.10;;
23768;SDS011;12064;50.890;5.424;2023-04-03T18:07:51;1.38;;;1.27;;
23768;SDS011;12064;50.890;5.424;2023-04-03T18:16:42;1.83;;;1.17;;
23768;SDS011;12064;50.890;5.424;2023-04-03T18:25:33;1.90;;;1.30;;
23768;SDS011;12064;50.890;5.424;2023-04-03T18:34:25;1.13;;;1.02;;
23768;SDS011;12064;50.890;5.424;2023-04-03T18:43:16;1.27;;;1.17;;
23768;SDS011;12064;50.890;5.424;2023-04-03T18:52:07;2.00;;;1.23;;
23768;SDS011;12064;50.890;5.424;2023-04-03T19:00:59;1.55;;;1.15;;
23768;SDS011;12064;50.890;5.424;2023-04-03T19:09:50;1.20;;;1.00;;
23768;SDS011;12064;50.890;5.424;2023-04-03T19:18:41;1.08;;;0.95;;
23768;SDS011;12064;50.890;5.424;2023-04-03T19:27:32;0.88;;;0.88;;
23768;SDS011;12064;50.890;5.424;2023-04-03T19:36:23;1.45;;;1.00;;
23768;SDS011;12064;50.890;5.424;2023-04-03T19:45:14;1.55;;;1.00;;
23768;SDS011;12064;50.890;5.424;2023-04-03T19:54:07;1.20;;;1.10;;
23768;SDS011;12064;50.890;5.424;2023-04-03T20:02:57;1.77;;;1.30;;
23768;SDS011;12064;50.890;5.424;2023-04-03T20:11:48;1.52;;;1.20;;
23768;SDS011;12064;50.890;5.424;2023-04-03T20:20:39;1.55;;;1.10;;
23768;SDS011;12064;50.890;5.424;2023-04-03T20:29:34;1.45;;;1.00;;
23768;SDS011;12064;50.890;5.424;2023-04-03T20:38:25;2.40;;;1.20;;
23768;SDS011;12064;50.890;5.424;2023-04-03T20:47:16;2.60;;;1.40;;
23768;SDS011;12064;50.890;5.424;2023-04-03T20:56:07;2.03;;;1.17;;
23768;SDS011;12064;50.890;5.424;2023-04-03T21:04:58;2.42;;;1.40;;
23768;SDS011;12064;50.890;5.424;2023-04-03T21:23:21;1.67;;;1.40;;
23768;SDS011;12064;50.890;5.424;2023-04-03T21:32:13;1.27;;;1.05;;
23768;SDS011;12064;50.890;5.424;2023-04-03T21:41:03;1.33;;;1.20;;
23768;SDS011;12064;50.890;5.424;2023-04-03T21:49:57;1.33;;;1.10;;
23768;SDS011;12064;50.890;5.424;2023-04-03T21:58:48;1.35;;;1.10;;
23768;SDS011;12064;50.890;5.424;2023-04-03T22:07:43;2.15;;;1.30;;
23768;SDS011;12064;50.890;5.424;2023-04-03T22:16:34;1.90;;;1.20;;
23768;SDS011;12064;50.890;5.424;2023-04-03T22:25:25;1.52;;;1.10;;
23768;SDS011;12064;50.890;5.424;2023-04-03T22:34:18;1.63;;;1.30;;
23768;SDS011;12064;50.890;5.424;2023-04-03T22:43:09;1.65;;;1.23;;
23768;SDS011;12064;50.890;5.424;2023-04-03T22:52:01;2.15;;;1.27;;
23768;SDS011;12064;50.890;5.424;2023-04-03T23:01:05;1.57;;;1.20;;
23768;SDS011;12064;50.890;5.424;2023-04-03T23:10:00;1.50;;;1.00;;
23768;SDS011;12064;50.890;5.424;2023-04-03T23:18:51;1.85;;;1.30;;
23768;SDS011;12064;50.890;5.424;2023-04-03T23:27:48;1.20;;;1.10;;
23768;SDS011;12064;50.890;5.424;2023-04-03T23:36:42;1.75;;;1.10;;
23768;SDS011;12064;50.890;5.424;2023-04-03T23:45:33;2.17;;;0.90;;
23768;SDS011;12064;50.890;5.424;2023-04-03T23:54:23;1.42;;;1.13;;
